Etusivu
METAR-TAF:

METAR-TAF

Lentoasemat :

Kuopion lentoasema

Kuopio, Suomi

Leveyspiiri: 63-01N, Pituuspiiri: 027-48E, korkeus merenpinnasta: 98 m

Tämänhetkinen sää

Tämä raportti tehtiin 28 minuuttia sitten, kello 13.50 UTC
Tuuli 11 kn pohjoisen/luoteesta
Lämpötila 0°C
Kosteus 26%
Ilmanpaine 1021 hPa
Näkyvyys 10 km tai enemmän
ei pilviä alle 1500 m:ssä eikä cumulonimbus-pilviä

METAR: EFKU 301350Z AUTO 33011KT CAVOK M00/M17 Q1021

Aika: 17:18 (14:18 UTC)

Sääennuste

Tämä raportti tehtiin 2 tuntia ja 44 minuuttia sitten, kello 11.34 UTC
Ennuste voimassa 30. päivästä klo 12 UTC - 31. päivään klo 12 UTC
Tuuli 10 kn luoteesta
Näkyvyys 10 km tai enemmän
ei pilviä alle 1500 m:ssä eikä cumulonimbus-pilviä
Tulossa
31. päivästä klo 03 UTC - 31. päivään klo 05 UTC
Tuuli 4 kn etelästä

TAF: EFKU 301134Z 3012/3112 31010KT CAVOK BECMG 3103/3105 19004KT

Säähavainnot ja -ennusteet yli 4000 lentoasemalta (METAR- ja TAF-raportit).

Käytössä olevat sääasemat on merkitty karttaan keltaisilla ja punaisilla pisteillä.

Aseta hiiri pisteen päälle nähdäksesi sääaseman nimen.

Klikkaa sitten nähdäksesi säähavainnot ja -ennusteet.

Kartan vaihtaminen: klikkaa mustalla rastilla varustettuja vihreitä pisteitä, niin voit zoomata sisään; viivalla varustettua vihreää pistettä, niin voit zoomata ulos tai vihreitä nuolia, niin pääset viereisille kartoille.


METAR-TAF: